sensor_id;sensor_type;location;lat;lon;timestamp;P1;durP1;ratioP1;P2;durP2;ratioP2
21675;SDS011;10999;51.332;9.458;2022-09-13T00:00:50;12.07;;;5.13;;
21675;SDS011;10999;51.332;9.458;2022-09-13T00:03:18;11.48;;;4.65;;
21675;SDS011;10999;51.332;9.458;2022-09-13T00:05:45;10.70;;;5.13;;
21675;SDS011;10999;51.332;9.458;2022-09-13T00:08:13;11.90;;;5.43;;
21675;SDS011;10999;51.332;9.458;2022-09-13T00:10:40;12.38;;;5.22;;
21675;SDS011;10999;51.332;9.458;2022-09-13T00:13:09;13.30;;;4.90;;
21675;SDS011;10999;51.332;9.458;2022-09-13T00:15:41;11.93;;;4.97;;
21675;SDS011;10999;51.332;9.458;2022-09-13T00:18:09;11.43;;;5.05;;
21675;SDS011;10999;51.332;9.458;2022-09-13T00:20:36;10.88;;;4.95;;
21675;SDS011;10999;51.332;9.458;2022-09-13T00:23:03;12.30;;;4.82;;
21675;SDS011;10999;51.332;9.458;2022-09-13T00:25:29;9.50;;;4.30;;
21675;SDS011;10999;51.332;9.458;2022-09-13T00:27:56;10.63;;;4.43;;
21675;SDS011;10999;51.332;9.458;2022-09-13T00:30:23;10.00;;;4.45;;
21675;SDS011;10999;51.332;9.458;2022-09-13T00:32:49;11.43;;;4.75;;
21675;SDS011;10999;51.332;9.458;2022-09-13T00:35:16;10.60;;;4.38;;
21675;SDS011;10999;51.332;9.458;2022-09-13T00:37:43;9.50;;;4.70;;
21675;SDS011;10999;51.332;9.458;2022-09-13T00:40:09;11.55;;;4.75;;
21675;SDS011;10999;51.332;9.458;2022-09-13T00:42:36;10.27;;;4.20;;
21675;SDS011;10999;51.332;9.458;2022-09-13T00:50:32;10.07;;;3.90;;
21675;SDS011;10999;51.332;9.458;2022-09-13T00:53:06;9.55;;;3.85;;
21675;SDS011;10999;51.332;9.458;2022-09-13T00:55:38;8.95;;;3.90;;
21675;SDS011;10999;51.332;9.458;2022-09-13T00:58:15;9.40;;;4.35;;
21675;SDS011;10999;51.332;9.458;2022-09-13T01:00:47;10.18;;;4.43;;
21675;SDS011;10999;51.332;9.458;2022-09-13T01:03:15;9.25;;;3.90;;
21675;SDS011;10999;51.332;9.458;2022-09-13T01:05:45;9.60;;;4.80;;
21675;SDS011;10999;51.332;9.458;2022-09-13T01:08:19;10.93;;;4.43;;
21675;SDS011;10999;51.332;9.458;2022-09-13T01:10:51;9.70;;;4.28;;
21675;SDS011;10999;51.332;9.458;2022-09-13T01:13:28;8.98;;;3.53;;
21675;SDS011;10999;51.332;9.458;2022-09-13T01:15:57;12.32;;;4.82;;
21675;SDS011;10999;51.332;9.458;2022-09-13T01:18:25;9.48;;;4.43;;
21675;SDS011;10999;51.332;9.458;2022-09-13T01:46:49;12.98;;;5.35;;
21675;SDS011;10999;51.332;9.458;2022-09-13T01:58:04;11.13;;;5.13;;
21675;SDS011;10999;51.332;9.458;2022-09-13T02:03:36;11.52;;;5.47;;
21675;SDS011;10999;51.332;9.458;2022-09-13T02:06:11;12.52;;;5.20;;
21675;SDS011;10999;51.332;9.458;2022-09-13T02:08:44;12.90;;;5.32;;
21675;SDS011;10999;51.332;9.458;2022-09-13T02:11:16;12.70;;;5.10;;
21675;SDS011;10999;51.332;9.458;2022-09-13T02:14:06;13.30;;;4.88;;
21675;SDS011;10999;51.332;9.458;2022-09-13T02:16:40;11.65;;;5.25;;
21675;SDS011;10999;51.332;9.458;2022-09-13T02:19:16;12.75;;;5.30;;
21675;SDS011;10999;51.332;9.458;2022-09-13T02:21:50;13.50;;;5.03;;
21675;SDS011;10999;51.332;9.458;2022-09-13T02:24:31;10.98;;;4.82;;
21675;SDS011;10999;51.332;9.458;2022-09-13T02:27:05;11.35;;;5.03;;
21675;SDS011;10999;51.332;9.458;2022-09-13T02:29:35;12.73;;;5.22;;
21675;SDS011;10999;51.332;9.458;2022-09-13T02:32:06;10.48;;;4.60;;
21675;SDS011;10999;51.332;9.458;2022-09-13T02:34:53;9.90;;;4.95;;
21675;SDS011;10999;51.332;9.458;2022-09-13T02:37:23;11.30;;;4.90;;
21675;SDS011;10999;51.332;9.458;2022-09-13T02:39:53;10.75;;;5.05;;
21675;SDS011;10999;51.332;9.458;2022-09-13T02:53:26;9.02;;;4.20;;
21675;SDS011;10999;51.332;9.458;2022-09-13T02:56:09;10.70;;;4.68;;
21675;SDS011;10999;51.332;9.458;2022-09-13T03:01:40;9.05;;;4.07;;
21675;SDS011;10999;51.332;9.458;2022-09-13T03:04:10;10.25;;;4.82;;
21675;SDS011;10999;51.332;9.458;2022-09-13T03:06:38;10.02;;;4.15;;
21675;SDS011;10999;51.332;9.458;2022-09-13T03:09:06;8.77;;;4.25;;
21675;SDS011;10999;51.332;9.458;2022-09-13T03:14:33;11.27;;;4.68;;
21675;SDS011;10999;51.332;9.458;2022-09-13T03:22:57;11.18;;;5.10;;
21675;SDS011;10999;51.332;9.458;2022-09-13T03:25:52;12.15;;;5.35;;
21675;SDS011;10999;51.332;9.458;2022-09-13T03:36:57;10.77;;;5.13;;
21675;SDS011;10999;51.332;9.458;2022-09-13T03:39:47;10.82;;;5.18;;
21675;SDS011;10999;51.332;9.458;2022-09-13T03:42:40;13.27;;;5.22;;
21675;SDS011;10999;51.332;9.458;2022-09-13T03:45:16;11.98;;;5.20;;
21675;SDS011;10999;51.332;9.458;2022-09-13T03:47:46;11.70;;;5.25;;
21675;SDS011;10999;51.332;9.458;2022-09-13T03:50:17;10.90;;;4.78;;
21675;SDS011;10999;51.332;9.458;2022-09-13T03:52:46;11.98;;;5.40;;
21675;SDS011;10999;51.332;9.458;2022-09-13T03:55:18;12.95;;;5.82;;
21675;SDS011;10999;51.332;9.458;2022-09-13T03:57:46;12.02;;;5.00;;
21675;SDS011;10999;51.332;9.458;2022-09-13T04:00:13;11.77;;;4.80;;
21675;SDS011;10999;51.332;9.458;2022-09-13T04:02:40;11.98;;;5.32;;
21675;SDS011;10999;51.332;9.458;2022-09-13T04:05:07;12.98;;;5.63;;
21675;SDS011;10999;51.332;9.458;2022-09-13T04:07:33;12.90;;;5.38;;
21675;SDS011;10999;51.332;9.458;2022-09-13T04:10:00;12.48;;;5.75;;
21675;SDS011;10999;51.332;9.458;2022-09-13T04:12:27;11.38;;;5.80;;
21675;SDS011;10999;51.332;9.458;2022-09-13T04:14:56;13.27;;;6.22;;
21675;SDS011;10999;51.332;9.458;2022-09-13T04:17:23;12.75;;;5.78;;
21675;SDS011;10999;51.332;9.458;2022-09-13T04:19:49;12.35;;;6.05;;
21675;SDS011;10999;51.332;9.458;2022-09-13T04:22:16;12.18;;;6.20;;
21675;SDS011;10999;51.332;9.458;2022-09-13T04:24:43;18.20;;;6.60;;
21675;SDS011;10999;51.332;9.458;2022-09-13T04:27:09;13.85;;;6.38;;
21675;SDS011;10999;51.332;9.458;2022-09-13T04:29:37;12.68;;;5.82;;
21675;SDS011;10999;51.332;9.458;2022-09-13T04:32:03;14.40;;;6.47;;
21675;SDS011;10999;51.332;9.458;2022-09-13T04:34:30;14.10;;;6.15;;
21675;SDS011;10999;51.332;9.458;2022-09-13T04:36:57;12.70;;;5.85;;
21675;SDS011;10999;51.332;9.458;2022-09-13T04:39:24;13.48;;;6.50;;
21675;SDS011;10999;51.332;9.458;2022-09-13T04:41:51;15.25;;;6.32;;
21675;SDS011;10999;51.332;9.458;2022-09-13T04:44:19;13.57;;;5.97;;
21675;SDS011;10999;51.332;9.458;2022-09-13T04:46:49;13.50;;;6.25;;
21675;SDS011;10999;51.332;9.458;2022-09-13T04:49:16;12.95;;;5.90;;
21675;SDS011;10999;51.332;9.458;2022-09-13T04:51:45;12.48;;;5.93;;
21675;SDS011;10999;51.332;9.458;2022-09-13T04:54:11;12.43;;;5.70;;
21675;SDS011;10999;51.332;9.458;2022-09-13T04:56:41;12.90;;;6.22;;
21675;SDS011;10999;51.332;9.458;2022-09-13T04:59:09;13.90;;;6.32;;
21675;SDS011;10999;51.332;9.458;2022-09-13T05:01:37;12.50;;;5.95;;
21675;SDS011;10999;51.332;9.458;2022-09-13T05:04:04;13.52;;;5.90;;
21675;SDS011;10999;51.332;9.458;2022-09-13T05:06:32;15.25;;;6.78;;
21675;SDS011;10999;51.332;9.458;2022-09-13T05:08:59;15.52;;;6.93;;
21675;SDS011;10999;51.332;9.458;2022-09-13T05:11:26;13.32;;;6.63;;
21675;SDS011;10999;51.332;9.458;2022-09-13T05:13:57;12.57;;;6.32;;
21675;SDS011;10999;51.332;9.458;2022-09-13T05:16:26;14.07;;;6.65;;
21675;SDS011;10999;51.332;9.458;2022-09-13T05:18:54;13.70;;;6.60;;
21675;SDS011;10999;51.332;9.458;2022-09-13T05:21:22;12.65;;;6.22;;
21675;SDS011;10999;51.332;9.458;2022-09-13T05:23:49;15.90;;;6.72;;
21675;SDS011;10999;51.332;9.458;2022-09-13T05:26:17;15.50;;;6.53;;
21675;SDS011;10999;51.332;9.458;2022-09-13T05:28:44;14.10;;;6.60;;
21675;SDS011;10999;51.332;9.458;2022-09-13T05:31:12;13.88;;;6.03;;
21675;SDS011;10999;51.332;9.458;2022-09-13T05:33:42;13.02;;;5.75;;
21675;SDS011;10999;51.332;9.458;2022-09-13T05:36:10;11.63;;;6.07;;
21675;SDS011;10999;51.332;9.458;2022-09-13T05:38:37;12.18;;;6.00;;
21675;SDS011;10999;51.332;9.458;2022-09-13T05:41:04;15.70;;;6.90;;
21675;SDS011;10999;51.332;9.458;2022-09-13T05:43:32;12.98;;;6.75;;
21675;SDS011;10999;51.332;9.458;2022-09-13T05:48:28;13.05;;;6.45;;
21675;SDS011;10999;51.332;9.458;2022-09-13T05:50:55;14.35;;;6.43;;
21675;SDS011;10999;51.332;9.458;2022-09-13T05:53:28;13.18;;;6.53;;
21675;SDS011;10999;51.332;9.458;2022-09-13T05:55:56;15.10;;;6.75;;
21675;SDS011;10999;51.332;9.458;2022-09-13T05:58:22;13.48;;;6.07;;
21675;SDS011;10999;51.332;9.458;2022-09-13T06:00:52;14.95;;;7.82;;
21675;SDS011;10999;51.332;9.458;2022-09-13T06:03:21;15.10;;;6.70;;
21675;SDS011;10999;51.332;9.458;2022-09-13T06:05:49;12.68;;;6.57;;
21675;SDS011;10999;51.332;9.458;2022-09-13T06:08:19;11.68;;;5.65;;
21675;SDS011;10999;51.332;9.458;2022-09-13T06:10:57;12.25;;;6.10;;
21675;SDS011;10999;51.332;9.458;2022-09-13T06:13:26;13.43;;;6.30;;
21675;SDS011;10999;51.332;9.458;2022-09-13T06:15:53;13.30;;;6.93;;
21675;SDS011;10999;51.332;9.458;2022-09-13T06:18:21;15.40;;;6.30;;
21675;SDS011;10999;51.332;9.458;2022-09-13T06:20:49;14.02;;;6.43;;
21675;SDS011;10999;51.332;9.458;2022-09-13T06:23:17;13.93;;;7.28;;
21675;SDS011;10999;51.332;9.458;2022-09-13T06:25:43;14.98;;;7.18;;
21675;SDS011;10999;51.332;9.458;2022-09-13T06:28:10;14.85;;;6.70;;
21675;SDS011;10999;51.332;9.458;2022-09-13T06:30:36;15.75;;;7.28;;
21675;SDS011;10999;51.332;9.458;2022-09-13T06:33:03;14.15;;;6.85;;
21675;SDS011;10999;51.332;9.458;2022-09-13T06:35:30;13.13;;;6.25;;
21675;SDS011;10999;51.332;9.458;2022-09-13T06:37:56;14.63;;;6.30;;
21675;SDS011;10999;51.332;9.458;2022-09-13T06:40:24;15.85;;;7.53;;
21675;SDS011;10999;51.332;9.458;2022-09-13T06:42:51;14.50;;;6.50;;
21675;SDS011;10999;51.332;9.458;2022-09-13T06:45:18;13.52;;;6.75;;
21675;SDS011;10999;51.332;9.458;2022-09-13T06:47:45;15.10;;;6.53;;
21675;SDS011;10999;51.332;9.458;2022-09-13T06:50:11;13.68;;;6.75;;
21675;SDS011;10999;51.332;9.458;2022-09-13T06:52:38;16.38;;;7.55;;
21675;SDS011;10999;51.332;9.458;2022-09-13T06:55:05;13.13;;;6.35;;
21675;SDS011;10999;51.332;9.458;2022-09-13T06:57:37;13.98;;;7.72;;
21675;SDS011;10999;51.332;9.458;2022-09-13T07:00:04;14.68;;;6.88;;
21675;SDS011;10999;51.332;9.458;2022-09-13T07:02:31;13.65;;;6.72;;
21675;SDS011;10999;51.332;9.458;2022-09-13T07:04:58;14.95;;;6.55;;
21675;SDS011;10999;51.332;9.458;2022-09-13T07:07:24;13.00;;;6.13;;
21675;SDS011;10999;51.332;9.458;2022-09-13T07:09:51;16.02;;;6.90;;
21675;SDS011;10999;51.332;9.458;2022-09-13T07:12:18;15.60;;;6.78;;
21675;SDS011;10999;51.332;9.458;2022-09-13T07:14:45;14.95;;;6.90;;
21675;SDS011;10999;51.332;9.458;2022-09-13T07:17:12;14.73;;;7.03;;
21675;SDS011;10999;51.332;9.458;2022-09-13T07:19:39;14.77;;;6.70;;
21675;SDS011;10999;51.332;9.458;2022-09-13T07:22:06;14.32;;;6.57;;
21675;SDS011;10999;51.332;9.458;2022-09-13T07:24:33;13.93;;;6.93;;
21675;SDS011;10999;51.332;9.458;2022-09-13T07:26:59;13.50;;;6.93;;
21675;SDS011;10999;51.332;9.458;2022-09-13T07:29:26;15.00;;;6.53;;
21675;SDS011;10999;51.332;9.458;2022-09-13T07:31:53;15.77;;;7.13;;
21675;SDS011;10999;51.332;9.458;2022-09-13T07:34:22;15.88;;;7.05;;
21675;SDS011;10999;51.332;9.458;2022-09-13T07:36:50;13.93;;;6.60;;
21675;SDS011;10999;51.332;9.458;2022-09-13T07:39:17;13.05;;;6.72;;
21675;SDS011;10999;51.332;9.458;2022-09-13T07:41:48;15.27;;;7.35;;
21675;SDS011;10999;51.332;9.458;2022-09-13T07:44:15;13.50;;;7.20;;
21675;SDS011;10999;51.332;9.458;2022-09-13T07:46:42;14.02;;;6.80;;
21675;SDS011;10999;51.332;9.458;2022-09-13T07:49:10;15.05;;;7.20;;
21675;SDS011;10999;51.332;9.458;2022-09-13T07:51:39;13.60;;;7.03;;
21675;SDS011;10999;51.332;9.458;2022-09-13T07:54:11;13.68;;;7.03;;
21675;SDS011;10999;51.332;9.458;2022-09-13T07:59:10;15.60;;;7.07;;
21675;SDS011;10999;51.332;9.458;2022-09-13T08:01:39;14.65;;;6.80;;
21675;SDS011;10999;51.332;9.458;2022-09-13T08:04:11;16.38;;;7.80;;
21675;SDS011;10999;51.332;9.458;2022-09-13T08:06:39;15.70;;;7.65;;
21675;SDS011;10999;51.332;9.458;2022-09-13T08:09:08;14.15;;;7.60;;
21675;SDS011;10999;51.332;9.458;2022-09-13T08:11:37;17.08;;;7.57;;
21675;SDS011;10999;51.332;9.458;2022-09-13T08:14:09;17.70;;;7.50;;
21675;SDS011;10999;51.332;9.458;2022-09-13T08:16:37;17.83;;;7.82;;
21675;SDS011;10999;51.332;9.458;2022-09-13T08:19:05;16.15;;;7.18;;
21675;SDS011;10999;51.332;9.458;2022-09-13T08:21:34;13.43;;;7.05;;
21675;SDS011;10999;51.332;9.458;2022-09-13T08:24:03;14.55;;;7.15;;
21675;SDS011;10999;51.332;9.458;2022-09-13T08:26:31;13.27;;;6.95;;
21675;SDS011;10999;51.332;9.458;2022-09-13T08:28:59;15.82;;;7.55;;
21675;SDS011;10999;51.332;9.458;2022-09-13T08:31:28;17.40;;;7.63;;
21675;SDS011;10999;51.332;9.458;2022-09-13T08:33:55;15.15;;;7.55;;
21675;SDS011;10999;51.332;9.458;2022-09-13T08:36:23;14.52;;;7.32;;
21675;SDS011;10999;51.332;9.458;2022-09-13T08:38:52;12.80;;;6.30;;
21675;SDS011;10999;51.332;9.458;2022-09-13T08:43:58;14.10;;;7.13;;
21675;SDS011;10999;51.332;9.458;2022-09-13T08:46:35;17.33;;;7.40;;
21675;SDS011;10999;51.332;9.458;2022-09-13T08:49:09;14.23;;;7.03;;
21675;SDS011;10999;51.332;9.458;2022-09-13T08:51:53;14.77;;;6.45;;
21675;SDS011;10999;51.332;9.458;2022-09-13T08:54:23;12.13;;;6.18;;
21675;SDS011;10999;51.332;9.458;2022-09-13T08:56:51;13.65;;;6.50;;
21675;SDS011;10999;51.332;9.458;2022-09-13T09:02:45;11.77;;;6.30;;
21675;SDS011;10999;51.332;9.458;2022-09-13T09:05:23;12.10;;;5.78;;
21675;SDS011;10999;51.332;9.458;2022-09-13T09:07:58;10.80;;;5.80;;
21675;SDS011;10999;51.332;9.458;2022-09-13T09:10:28;11.18;;;6.03;;
21675;SDS011;10999;51.332;9.458;2022-09-13T09:13:01;12.02;;;6.03;;
21675;SDS011;10999;51.332;9.458;2022-09-13T09:15:39;13.13;;;6.80;;
21675;SDS011;10999;51.332;9.458;2022-09-13T09:18:20;12.38;;;6.10;;
21675;SDS011;10999;51.332;9.458;2022-09-13T09:20:50;12.32;;;6.13;;
21675;SDS011;10999;51.332;9.458;2022-09-13T09:23:20;12.63;;;5.93;;
21675;SDS011;10999;51.332;9.458;2022-09-13T09:25:55;11.20;;;5.25;;
21675;SDS011;10999;51.332;9.458;2022-09-13T09:28:45;12.45;;;6.18;;
21675;SDS011;10999;51.332;9.458;2022-09-13T09:31:26;12.32;;;5.93;;
21675;SDS011;10999;51.332;9.458;2022-09-13T09:37:05;11.95;;;5.68;;
21675;SDS011;10999;51.332;9.458;2022-09-13T09:39:41;11.48;;;5.55;;
21675;SDS011;10999;51.332;9.458;2022-09-13T09:42:11;11.40;;;5.30;;
21675;SDS011;10999;51.332;9.458;2022-09-13T09:44:44;11.90;;;5.63;;
21675;SDS011;10999;51.332;9.458;2022-09-13T09:47:15;12.63;;;5.60;;
21675;SDS011;10999;51.332;9.458;2022-09-13T09:58:05;11.13;;;5.93;;
21675;SDS011;10999;51.332;9.458;2022-09-13T10:00:34;11.60;;;5.70;;
21675;SDS011;10999;51.332;9.458;2022-09-13T10:03:06;11.02;;;5.38;;
21675;SDS011;10999;51.332;9.458;2022-09-13T10:05:44;10.40;;;5.20;;
21675;SDS011;10999;51.332;9.458;2022-09-13T10:08:23;12.27;;;5.60;;
21675;SDS011;10999;51.332;9.458;2022-09-13T10:10:53;10.98;;;5.30;;
21675;SDS011;10999;51.332;9.458;2022-09-13T10:13:22;11.73;;;5.18;;
21675;SDS011;10999;51.332;9.458;2022-09-13T10:15:57;11.10;;;4.63;;
21675;SDS011;10999;51.332;9.458;2022-09-13T10:18:29;10.27;;;5.32;;
21675;SDS011;10999;51.332;9.458;2022-09-13T10:23:50;11.88;;;5.20;;
21675;SDS011;10999;51.332;9.458;2022-09-13T10:26:18;9.75;;;4.70;;
21675;SDS011;10999;51.332;9.458;2022-09-13T10:28:53;11.88;;;4.57;;
21675;SDS011;10999;51.332;9.458;2022-09-13T10:31:42;11.18;;;5.13;;
21675;SDS011;10999;51.332;9.458;2022-09-13T10:34:12;10.48;;;4.22;;
21675;SDS011;10999;51.332;9.458;2022-09-13T10:36:47;11.57;;;5.03;;
21675;SDS011;10999;51.332;9.458;2022-09-13T10:39:21;10.18;;;4.82;;
21675;SDS011;10999;51.332;9.458;2022-09-13T10:41:50;8.77;;;3.88;;
21675;SDS011;10999;51.332;9.458;2022-09-13T10:44:22;10.00;;;4.82;;
21675;SDS011;10999;51.332;9.458;2022-09-13T10:46:53;10.50;;;5.65;;
21675;SDS011;10999;51.332;9.458;2022-09-13T10:49:41;10.77;;;5.18;;
21675;SDS011;10999;51.332;9.458;2022-09-13T11:00:18;10.57;;;5.38;;
21675;SDS011;10999;51.332;9.458;2022-09-13T11:05:46;9.52;;;4.47;;
21675;SDS011;10999;51.332;9.458;2022-09-13T11:11:35;7.85;;;3.88;;
21675;SDS011;10999;51.332;9.458;2022-09-13T11:14:33;7.85;;;3.80;;
21675;SDS011;10999;51.332;9.458;2022-09-13T11:23:20;6.85;;;3.15;;
21675;SDS011;10999;51.332;9.458;2022-09-13T11:31:17;7.22;;;3.08;;
21675;SDS011;10999;51.332;9.458;2022-09-13T11:39:38;6.78;;;3.20;;
21675;SDS011;10999;51.332;9.458;2022-09-13T11:47:49;7.30;;;3.03;;
21675;SDS011;10999;51.332;9.458;2022-09-13T11:50:22;9.27;;;4.07;;
21675;SDS011;10999;51.332;9.458;2022-09-13T11:55:25;6.65;;;3.50;;
21675;SDS011;10999;51.332;9.458;2022-09-13T11:57:58;5.70;;;3.22;;
21675;SDS011;10999;51.332;9.458;2022-09-13T12:05:33;6.63;;;2.97;;
21675;SDS011;10999;51.332;9.458;2022-09-13T12:10:47;6.97;;;3.25;;
21675;SDS011;10999;51.332;9.458;2022-09-13T12:15:58;7.45;;;3.85;;
21675;SDS011;10999;51.332;9.458;2022-09-13T12:18:31;7.55;;;4.22;;
21675;SDS011;10999;51.332;9.458;2022-09-13T12:21:24;7.00;;;3.15;;
21675;SDS011;10999;51.332;9.458;2022-09-13T12:24:00;6.93;;;3.53;;
21675;SDS011;10999;51.332;9.458;2022-09-13T12:26:51;7.70;;;3.28;;
21675;SDS011;10999;51.332;9.458;2022-09-13T12:31:55;9.02;;;3.60;;
21675;SDS011;10999;51.332;9.458;2022-09-13T12:34:31;7.28;;;3.30;;
21675;SDS011;10999;51.332;9.458;2022-09-13T12:42:33;6.22;;;2.75;;
21675;SDS011;10999;51.332;9.458;2022-09-13T12:47:53;7.55;;;2.88;;
21675;SDS011;10999;51.332;9.458;2022-09-13T13:02:01;4.93;;;2.42;;
21675;SDS011;10999;51.332;9.458;2022-09-13T13:04:31;6.63;;;2.60;;
21675;SDS011;10999;51.332;9.458;2022-09-13T13:07:04;5.20;;;2.60;;
21675;SDS011;10999;51.332;9.458;2022-09-13T13:09:40;5.68;;;2.53;;
21675;SDS011;10999;51.332;9.458;2022-09-13T13:14:57;7.05;;;2.13;;
21675;SDS011;10999;51.332;9.458;2022-09-13T13:20:37;5.57;;;2.25;;
21675;SDS011;10999;51.332;9.458;2022-09-13T13:29:04;5.13;;;2.00;;
21675;SDS011;10999;51.332;9.458;2022-09-13T13:31:39;4.40;;;2.20;;
21675;SDS011;10999;51.332;9.458;2022-09-13T13:41:55;4.88;;;1.95;;
21675;SDS011;10999;51.332;9.458;2022-09-13T13:57:30;8.43;;;2.83;;
21675;SDS011;10999;51.332;9.458;2022-09-13T14:02:37;5.00;;;2.45;;
21675;SDS011;10999;51.332;9.458;2022-09-13T14:05:32;5.45;;;1.90;;
21675;SDS011;10999;51.332;9.458;2022-09-13T14:08:22;5.28;;;2.42;;
21675;SDS011;10999;51.332;9.458;2022-09-13T14:16:47;4.85;;;2.00;;
21675;SDS011;10999;51.332;9.458;2022-09-13T14:19:44;5.05;;;1.83;;
21675;SDS011;10999;51.332;9.458;2022-09-13T14:22:23;5.50;;;2.20;;
21675;SDS011;10999;51.332;9.458;2022-09-13T14:24:52;4.50;;;1.83;;
21675;SDS011;10999;51.332;9.458;2022-09-13T14:30:04;5.57;;;2.17;;
21675;SDS011;10999;51.332;9.458;2022-09-13T14:32:53;3.50;;;1.70;;
21675;SDS011;10999;51.332;9.458;2022-09-13T14:35:27;6.47;;;2.28;;
21675;SDS011;10999;51.332;9.458;2022-09-13T14:41:17;4.93;;;2.30;;
21675;SDS011;10999;51.332;9.458;2022-09-13T14:43:45;4.65;;;1.98;;
21675;SDS011;10999;51.332;9.458;2022-09-13T14:46:19;12.70;;;8.52;;
21675;SDS011;10999;51.332;9.458;2022-09-13T14:49:01;3.83;;;2.13;;
21675;SDS011;10999;51.332;9.458;2022-09-13T14:51:32;3.35;;;1.90;;
21675;SDS011;10999;51.332;9.458;2022-09-13T14:56:44;2.95;;;1.30;;
21675;SDS011;10999;51.332;9.458;2022-09-13T14:59:18;5.95;;;1.85;;
21675;SDS011;10999;51.332;9.458;2022-09-13T15:01:51;4.72;;;1.60;;
21675;SDS011;10999;51.332;9.458;2022-09-13T15:04:18;26.65;;;22.50;;
21675;SDS011;10999;51.332;9.458;2022-09-13T15:07:04;5.38;;;2.33;;
21675;SDS011;10999;51.332;9.458;2022-09-13T15:09:43;3.72;;;1.67;;
21675;SDS011;10999;51.332;9.458;2022-09-13T15:12:24;4.25;;;1.60;;
21675;SDS011;10999;51.332;9.458;2022-09-13T15:15:39;3.47;;;1.42;;
21675;SDS011;10999;51.332;9.458;2022-09-13T15:23:20;3.28;;;2.05;;
21675;SDS011;10999;51.332;9.458;2022-09-13T15:25:55;4.10;;;1.70;;
21675;SDS011;10999;51.332;9.458;2022-09-13T15:28:26;2.95;;;1.50;;
21675;SDS011;10999;51.332;9.458;2022-09-13T15:30:55;5.00;;;2.25;;
21675;SDS011;10999;51.332;9.458;2022-09-13T15:33:25;3.15;;;1.40;;
21675;SDS011;10999;51.332;9.458;2022-09-13T15:38:55;3.33;;;1.73;;
21675;SDS011;10999;51.332;9.458;2022-09-13T15:41:52;5.45;;;1.52;;
21675;SDS011;10999;51.332;9.458;2022-09-13T15:44:20;2.35;;;1.30;;
21675;SDS011;10999;51.332;9.458;2022-09-13T15:46:49;3.40;;;1.40;;
21675;SDS011;10999;51.332;9.458;2022-09-13T15:49:21;3.10;;;1.30;;
21675;SDS011;10999;51.332;9.458;2022-09-13T15:51:53;2.95;;;1.50;;
21675;SDS011;10999;51.332;9.458;2022-09-13T15:54:25;2.83;;;1.58;;
21675;SDS011;10999;51.332;9.458;2022-09-13T15:56:56;3.63;;;1.45;;
21675;SDS011;10999;51.332;9.458;2022-09-13T15:59:24;4.00;;;1.80;;
21675;SDS011;10999;51.332;9.458;2022-09-13T16:01:51;5.25;;;1.75;;
21675;SDS011;10999;51.332;9.458;2022-09-13T16:04:18;6.85;;;1.60;;
21675;SDS011;10999;51.332;9.458;2022-09-13T16:06:45;3.83;;;1.75;;
21675;SDS011;10999;51.332;9.458;2022-09-13T16:09:19;5.05;;;1.90;;
21675;SDS011;10999;51.332;9.458;2022-09-13T16:11:48;4.05;;;1.65;;
21675;SDS011;10999;51.332;9.458;2022-09-13T16:14:16;3.70;;;1.63;;
21675;SDS011;10999;51.332;9.458;2022-09-13T16:16:44;4.53;;;1.63;;
21675;SDS011;10999;51.332;9.458;2022-09-13T16:19:15;5.82;;;1.90;;
21675;SDS011;10999;51.332;9.458;2022-09-13T16:21:46;5.50;;;2.20;;
21675;SDS011;10999;51.332;9.458;2022-09-13T16:24:14;3.78;;;1.90;;
21675;SDS011;10999;51.332;9.458;2022-09-13T16:26:41;4.72;;;2.03;;
21675;SDS011;10999;51.332;9.458;2022-09-13T16:29:09;6.95;;;3.10;;
21675;SDS011;10999;51.332;9.458;2022-09-13T16:31:37;7.47;;;2.97;;
21675;SDS011;10999;51.332;9.458;2022-09-13T16:34:04;7.53;;;3.50;;
21675;SDS011;10999;51.332;9.458;2022-09-13T16:36:31;7.88;;;3.85;;
21675;SDS011;10999;51.332;9.458;2022-09-13T16:38:59;10.07;;;4.40;;
21675;SDS011;10999;51.332;9.458;2022-09-13T16:41:26;8.27;;;3.97;;
21675;SDS011;10999;51.332;9.458;2022-09-13T16:43:53;7.45;;;3.78;;
21675;SDS011;10999;51.332;9.458;2022-09-13T16:46:20;10.95;;;4.15;;
21675;SDS011;10999;51.332;9.458;2022-09-13T16:48:54;8.43;;;3.95;;
21675;SDS011;10999;51.332;9.458;2022-09-13T16:51:21;9.63;;;4.18;;
21675;SDS011;10999;51.332;9.458;2022-09-13T16:53:49;9.27;;;3.72;;
21675;SDS011;10999;51.332;9.458;2022-09-13T16:56:18;8.40;;;3.88;;
21675;SDS011;10999;51.332;9.458;2022-09-13T16:58:47;8.25;;;3.67;;
21675;SDS011;10999;51.332;9.458;2022-09-13T17:01:16;10.95;;;3.78;;
21675;SDS011;10999;51.332;9.458;2022-09-13T17:03:46;8.60;;;3.50;;
21675;SDS011;10999;51.332;9.458;2022-09-13T17:06:18;7.03;;;3.63;;
21675;SDS011;10999;51.332;9.458;2022-09-13T17:08:47;15.85;;;4.90;;
21675;SDS011;10999;51.332;9.458;2022-09-13T17:11:19;9.25;;;3.25;;
21675;SDS011;10999;51.332;9.458;2022-09-13T17:13:47;8.27;;;3.60;;
21675;SDS011;10999;51.332;9.458;2022-09-13T17:16:19;8.50;;;3.75;;
21675;SDS011;10999;51.332;9.458;2022-09-13T17:18:59;8.20;;;4.20;;
21675;SDS011;10999;51.332;9.458;2022-09-13T17:21:28;10.48;;;3.75;;
21675;SDS011;10999;51.332;9.458;2022-09-13T17:23:56;11.98;;;4.28;;
21675;SDS011;10999;51.332;9.458;2022-09-13T17:26:23;7.88;;;4.38;;
21675;SDS011;10999;51.332;9.458;2022-09-13T17:28:51;9.75;;;4.80;;
21675;SDS011;10999;51.332;9.458;2022-09-13T17:31:18;9.25;;;4.43;;
21675;SDS011;10999;51.332;9.458;2022-09-13T17:33:46;10.35;;;4.80;;
21675;SDS011;10999;51.332;9.458;2022-09-13T17:36:13;10.20;;;4.82;;
21675;SDS011;10999;51.332;9.458;2022-09-13T17:38:41;8.35;;;3.90;;
21675;SDS011;10999;51.332;9.458;2022-09-13T17:41:09;9.25;;;4.30;;
21675;SDS011;10999;51.332;9.458;2022-09-13T17:43:38;10.30;;;4.65;;
21675;SDS011;10999;51.332;9.458;2022-09-13T17:46:09;9.07;;;4.28;;
21675;SDS011;10999;51.332;9.458;2022-09-13T17:48:38;10.00;;;4.63;;
21675;SDS011;10999;51.332;9.458;2022-09-13T17:51:06;9.27;;;4.43;;
21675;SDS011;10999;51.332;9.458;2022-09-13T17:53:36;9.80;;;4.13;;
21675;SDS011;10999;51.332;9.458;2022-09-13T17:56:08;9.15;;;4.38;;
21675;SDS011;10999;51.332;9.458;2022-09-13T17:58:35;11.13;;;4.63;;
21675;SDS011;10999;51.332;9.458;2022-09-13T18:03:30;11.65;;;4.32;;
21675;SDS011;10999;51.332;9.458;2022-09-13T18:05:57;10.90;;;4.30;;
21675;SDS011;10999;51.332;9.458;2022-09-13T18:08:26;9.40;;;4.63;;
21675;SDS011;10999;51.332;9.458;2022-09-13T18:10:54;11.43;;;5.20;;
21675;SDS011;10999;51.332;9.458;2022-09-13T18:13:39;8.55;;;4.72;;
21675;SDS011;10999;51.332;9.458;2022-09-13T18:16:08;11.52;;;4.55;;
21675;SDS011;10999;51.332;9.458;2022-09-13T18:18:38;9.77;;;5.10;;
21675;SDS011;10999;51.332;9.458;2022-09-13T18:21:09;11.82;;;5.28;;
21675;SDS011;10999;51.332;9.458;2022-09-13T18:23:35;10.00;;;5.03;;
21675;SDS011;10999;51.332;9.458;2022-09-13T18:26:06;10.90;;;5.15;;
21675;SDS011;10999;51.332;9.458;2022-09-13T18:28:36;10.40;;;5.35;;
21675;SDS011;10999;51.332;9.458;2022-09-13T18:31:05;9.23;;;4.13;;
21675;SDS011;10999;51.332;9.458;2022-09-13T18:33:35;7.00;;;3.45;;
21675;SDS011;10999;51.332;9.458;2022-09-13T18:36:03;8.00;;;3.88;;
21675;SDS011;10999;51.332;9.458;2022-09-13T18:38:33;8.45;;;3.97;;
21675;SDS011;10999;51.332;9.458;2022-09-13T18:41:07;7.53;;;3.50;;
21675;SDS011;10999;51.332;9.458;2022-09-13T18:43:34;9.75;;;4.38;;
21675;SDS011;10999;51.332;9.458;2022-09-13T18:46:03;10.02;;;3.70;;
21675;SDS011;10999;51.332;9.458;2022-09-13T18:48:32;9.43;;;4.72;;
21675;SDS011;10999;51.332;9.458;2022-09-13T18:51:04;7.78;;;3.78;;
21675;SDS011;10999;51.332;9.458;2022-09-13T18:53:35;9.13;;;4.20;;